• Join FlightAware (Why Join?)
  • Login
  • US Flag 
02:54PM EDT


 

Airport Tracker/Info


-or-


 

Live Flight TrackerFlight Track Log ✈ N240ER ✈ 25-Apr-2013 ✈ KMKE - KAAO

Flight Track Log - Related Links

Times and Time Zones

All times are in EDT time to prevent confusion due to time zone crossing. See the N240ER flight status page for this flight to view local times or setup timezone preferences in your user account.

Time Position Orientation Groundspeed Altitude Reporting Facility
EDT Latitude Longitude Course Direction KTS MPH feet Rate Location/Type
03:12PM 42.9500 -87.9333 277° West 119 137 2,200  Level KMKE
03:14PM 42.9547 -88.0481 273° West 132 152 5,900 1,560 Climbing Chicago Center
03:15PM 42.9775 -88.0933 305° West 139 160 7,400 1,380 Climbing Chicago Center
03:16PM 42.9842 -88.1453 280° West 140 161 8,800 1,500 Climbing Chicago Center
03:17PM 42.9811 -88.2117 266° West 148 170 10,600 1,260 Climbing Chicago Center
03:18PM 42.9769 -88.2703 264° West 154 177 11,500 1,200 Climbing Chicago Center
03:19PM 42.9706 -88.3253 261° West 148 170 13,200 1,500 Climbing Chicago Center
03:20PM 42.9636 -88.3769 260° West 139 160 14,600 1,260 Climbing Chicago Center
03:21PM 42.9581 -88.4297 262° West 139 160 15,900 1,200 Climbing Chicago Center
03:22PM 42.9500 -88.4853 259° West 148 170 17,100 1,080 Climbing Chicago Center
03:23PM 42.9417 -88.5475 260° West 144 166 18,200 1,020 Climbing Chicago Center
03:24PM 42.9336 -88.6033 259° West 149 171 19,300 1,080 Climbing Chicago Center
03:25PM 42.9253 -88.6611 259° West 154 177 20,500 1,020 Climbing Chicago Center
03:26PM 42.9147 -88.7194 256° West 158 182 21,500 960 Climbing Chicago Center
03:27PM 42.9042 -88.7786 256° West 160 184 22,500 960 Climbing Chicago Center
03:28PM 42.8897 -88.8478 254° West 161 185 23,600 960 Climbing Chicago Center
03:29PM 42.8775 -88.9103 255° West 170 196 24,500 960 Climbing Chicago Center
03:31PM 42.8639 -88.9717 253° West 169 194 25,600 720 Climbing Chicago Center
03:32PM 42.8517 -89.0364 256° West 174 200 26,000 180 Climbing Chicago Center
03:33PM 42.8383 -89.1139 257° West 204 235 26,000  Level Chicago Center
03:34PM 42.8258 -89.1936 258° West 213 245 26,000  Level Chicago Center
03:35PM 42.8117 -89.2867 258° West 214 246 26,000  Level Chicago Center
03:36PM 42.8006 -89.3678 259° West 216 249 26,000  Level Chicago Center
03:37PM 42.7886 -89.4481 259° West 216 249 26,000  Level Chicago Center
03:38PM 42.7758 -89.5281 258° West 216 249 26,000  Level Chicago Center
03:39PM 42.7656 -89.6078 260° West 213 245 26,000  Level Chicago Center
03:40PM 42.7506 -89.7019 258° West 216 249 26,000  Level Chicago Center
03:41PM 42.7225 -89.7789 244° Southwest 224 258 26,000  Level Chicago Center
03:42PM 42.6786 -89.8494 230° Southwest 242 278 26,000  Level Chicago Center
03:43PM 42.6364 -89.9225 232° Southwest 240 276 26,000  Level Chicago Center
03:44PM 42.5950 -89.9925 231° Southwest 240 276 26,000  Level Chicago Center
03:46PM 42.5360 -90.0860 229° Southwest  Level FlightAware Approximate
03:46PM 42.5125 -90.1306 229° Southwest 237 273 26,000  Level Chicago Center
03:47PM 42.4628 -90.2144 231° Southwest 239 275 26,000  Level Chicago Center
03:48PM 42.4219 -90.2822 231° Southwest 236 272 26,000  Level Chicago Center
03:49PM 42.3814 -90.3519 232° Southwest 236 272 26,000  Level Chicago Center
03:50PM 42.3394 -90.4192 230° Southwest 237 273 26,000  Level Chicago Center
03:51PM 42.2986 -90.4892 232° Southwest 238 274 26,000  Level Chicago Center
03:52PM 42.2492 -90.5708 231° Southwest 236 272 26,000  Level Chicago Center
03:53PM 42.2081 -90.6386 231° Southwest 235 270 26,000  Level Chicago Center
03:54PM 42.1664 -90.7056 230° Southwest 233 268 26,000  Level Chicago Center
03:55PM 42.1253 -90.7742 231° Southwest 236 272 26,000  Level Chicago Center
03:56PM 42.0844 -90.8408 230° Southwest 234 269 26,000  Level Chicago Center
03:57PM 42.0356 -90.9208 231° Southwest 231 266 26,000  Level Chicago Center
03:58PM 41.9936 -90.9883 230° Southwest 234 269 26,000  Level Chicago Center
03:59PM 41.9533 -91.0558 231° Southwest 234 269 26,000  Level Chicago Center
04:01PM 41.9117 -91.1228 230° Southwest 235 270 26,000  Level Chicago Center
04:02PM 41.8714 -91.1869 230° Southwest 229 264 26,000  Level Chicago Center
04:03PM 41.8311 -91.2522 230° Southwest 228 262 26,000  Level Chicago Center
04:04PM 41.7825 -91.3314 231° Southwest 231 266 26,000  Level Chicago Center
04:05PM 41.7419 -91.3961 230° Southwest 230 265 26,000  Level Chicago Center
04:06PM 41.7017 -91.4625 231° Southwest 232 267 26,000  Level Chicago Center
04:07PM 41.6611 -91.5264 230° Southwest 230 265 26,000  Level Chicago Center
04:08PM 41.6203 -91.5908 230° Southwest 228 262 26,000  Level Chicago Center
04:09PM 41.5711 -91.6694 230° Southwest 230 265 26,000  Level Chicago Center
04:10PM 41.5308 -91.7339 230° Southwest 228 262 26,000  Level Chicago Center
04:11PM 41.4908 -91.7978 230° Southwest 227 261 26,000  Level Chicago Center
04:12PM 41.4497 -91.8611 229° Southwest 227 261 26,000  Level Chicago Center
04:13PM 41.4092 -91.9258 230° Southwest 228 262 26,000  Level Chicago Center
04:14PM 41.3606 -92.0025 230° Southwest 228 262 26,000  Level Chicago Center
04:15PM 41.3194 -92.0664 229° Southwest 229 264 26,000  Level Chicago Center
04:16PM 41.2789 -92.1308 230° Southwest 229 264 26,000  Level Chicago Center
04:17PM 41.2389 -92.1931 229° Southwest 224 258 26,000  Level Chicago Center
04:18PM 41.1922 -92.2667 230° Southwest 225 259 26,000  Level Chicago Center
04:19PM 41.1522 -92.3289 230° Southwest 225 259 26,000  Level Chicago Center
04:20PM 41.1108 -92.3914 229° Southwest 227 261 26,000  Level Chicago Center
04:21PM 41.0706 -92.4547 230° Southwest 228 262 26,000  Level Chicago Center
04:22PM 41.0294 -92.5186 230° Southwest 230 265 26,000  Level Chicago Center
04:23PM 40.9800 -92.5956 230° Southwest 232 267 26,000  Level Chicago Center
04:24PM 40.9378 -92.6597 229° Southwest 234 269 26,000  Level Chicago Center
04:25PM 40.8961 -92.7239 229° Southwest 233 268 26,000  Level Chicago Center
04:26PM 40.8542 -92.7881 229° Southwest 234 269 26,000  Level Chicago Center
04:27PM 40.8050 -92.8631 229° Southwest 229 264 26,000  Level Chicago Center
04:28PM 40.7636 -92.9275 230° Southwest 232 267 26,000  Level Chicago Center
04:29PM 40.7236 -92.9892 229° Southwest 226 260 26,000  Level Chicago Center
04:31PM 40.6828 -93.0517 229° Southwest 228 262 26,000  Level Chicago Center
04:32PM 40.6411 -93.1144 229° Southwest 229 264 26,000  Level Chicago Center
04:32PM 40.6014 -93.1769 230° Southwest 226 260 26,000  Level Kansas City Center
04:34PM 40.5614 -93.2394 230° Southwest 225 259 26,000  Level Kansas City Center
04:35PM 40.5175 -93.2986 226° Southwest 228 262 26,000  Level Kansas City Center
04:36PM 40.4689 -93.3717 229° Southwest 225 259 26,000  Level Kansas City Center
04:37PM 40.4289 -93.4342 230° Southwest 224 258 26,000  Level Kansas City Center
04:38PM 40.3883 -93.4956 229° Southwest 225 259 26,000  Level Kansas City Center
04:40PM 40.3058 -93.6175 228° Southwest 225 259 26,000  Level Kansas City Center
04:41PM 40.2561 -93.6911 229° Southwest 226 260 26,000  Level Kansas City Center
04:42PM 40.2150 -93.7531 229° Southwest 227 261 26,000  Level Kansas City Center
04:43PM 40.1731 -93.8131 228° Southwest 226 260 26,000  Level Kansas City Center
04:44PM 40.1325 -93.8739 229° Southwest 225 259 26,000  Level Kansas City Center
04:45PM 40.0922 -93.9350 229° Southwest 224 258 26,000  Level Kansas City Center
04:46PM 40.0425 -94.0075 228° Southwest 225 259 26,000  Level Kansas City Center
04:47PM 40.0022 -94.0692 230° Southwest 226 260 26,000  Level Kansas City Center
04:48PM 39.9581 -94.1331 228° Southwest 226 260 26,000  Level Kansas City Center
04:49PM 39.9186 -94.1922 229° Southwest 226 260 26,000  Level Kansas City Center
04:51PM 39.8604 -94.2758 228° Southwest  Level FlightAware Approximate
04:51PM 39.8331 -94.3161 228° Southwest 221 254 26,000  Level Kansas City Center
04:52PM 39.7872 -94.3828 228° Southwest 220 253 26,000  Level Kansas City Center
04:53PM 39.7483 -94.4394 228° Southwest 220 253 26,000  Level Kansas City Center
04:54PM 39.7042 -94.5061 229° Southwest 219 252 26,000  Level Kansas City Center
04:55PM 39.6644 -94.5619 227° Southwest 220 253 26,000  Level Kansas City Center
04:56PM 39.6197 -94.6264 228° Southwest 217 250 26,000  Level Kansas City Center
04:57PM 39.5817 -94.6825 229° Southwest 216 249 26,000  Level Kansas City Center
04:58PM 39.5367 -94.7472 228° Southwest 217 250 26,000  Level Kansas City Center
04:59PM 39.4986 -94.8031 229° Southwest 216 249 26,000  Level Kansas City Center
05:00PM 39.4608 -94.8569 228° Southwest 211 243 26,000  Level Kansas City Center
05:01PM 39.4178 -94.9175 227° Southwest 205 236 26,000  Level Kansas City Center
05:02PM 39.3806 -94.9708 228° Southwest 208 239 26,000  Level Kansas City Center
05:04PM 39.3369 -95.0333 228° Southwest 209 241 26,000  Level Kansas City Center
05:05PM 39.2992 -95.0869 228° Southwest 210 242 26,000  Level Kansas City Center
05:06PM 39.2528 -95.1531 228° Southwest 211 243 26,000  Level Kansas City Center
05:07PM 39.2142 -95.2086 228° Southwest 209 241 26,000  Level Kansas City Center
05:08PM 39.1747 -95.2636 227° Southwest 208 239 26,000  Level Kansas City Center
05:09PM 39.1339 -95.3219 228° Southwest 204 235 26,000  Level Kansas City Center
05:10PM 39.0950 -95.3767 228° Southwest 206 237 26,000  Level Kansas City Center
05:11PM 39.0531 -95.4356 227° Southwest 208 239 26,000  Level Kansas City Center
05:12PM 39.0169 -95.4867 228° Southwest 207 238 26,000 -120 Level Kansas City Center
05:13PM 38.9728 -95.5492 228° Southwest 212 244 25,800 -540 Descending Kansas City Center
05:14PM 38.9333 -95.6033 227° Southwest 216 249 24,900 -900 Descending Kansas City Center
05:15PM 38.8869 -95.6689 228° Southwest 219 252 24,000 -480 Descending Kansas City Center
05:16PM 38.8486 -95.7233 228° Southwest 214 246 24,000  Level Kansas City Center
05:17PM 38.8103 -95.7753 227° Southwest 211 243 24,000  Level Kansas City Center
05:18PM 38.7672 -95.8364 228° Southwest 209 241 24,000 -180 Level Kansas City Center
05:19PM 38.7289 -95.8881 226° Southwest 208 239 23,700 -720 Descending Kansas City Center
05:20PM 38.6836 -95.9528 228° Southwest 214 246 22,600 -1,020 Descending Kansas City Center
05:21PM 38.6464 -96.0075 229° Southwest 213 245 21,700 -1,020 Descending Kansas City Center
05:22PM 38.5997 -96.0686 226° Southwest 214 246 20,500 -1,020 Descending Kansas City Center
05:23PM 38.5608 -96.1239 228° Southwest 215 247 19,600 -960 Descending Kansas City Center
05:24PM 38.5144 -96.1853 226° Southwest 215 247 18,500 -960 Descending Kansas City Center
05:25PM 38.4756 -96.2392 227° Southwest 215 247 17,700 -900 Descending Kansas City Center
05:26PM 38.4319 -96.2989 227° Southwest 206 237 16,700 -1,020 Descending Kansas City Center
05:27PM 38.3981 -96.3453 227° Southwest 189 217 15,700 -1,020 Descending Kansas City Center
05:28PM 38.3600 -96.3978 227° Southwest 182 209 14,600 -1,020 Descending Kansas City Center
05:29PM 38.3272 -96.4425 227° Southwest 180 207 13,700 -960 Descending Kansas City Center
05:30PM 38.2861 -96.4950 225° Southwest 188 216 12,700 -960 Descending Kansas City Center
05:31PM 38.2553 -96.5422 230° Southwest 181 208 11,700 -960 Descending Kansas City Center
05:32PM 38.2194 -96.5883 225° Southwest 182 209 10,700 -960 Descending Kansas City Center
05:34PM 38.1850 -96.6356 227° Southwest 183 211 9,700 -960 Descending Kansas City Center
05:35PM 38.1506 -96.6867 229° Southwest 190 219 8,700 -1,140 Descending Kansas City Center
05:36PM 38.1094 -96.7503 231° Southwest 193 222 7,500 -1,140 Descending Kansas City Center
05:36PM 38.0794 -96.7931 228° Southwest 186 214 6,600 -1,020 Descending Kansas City Center
05:38PM 38.0419 -96.8442 227° Southwest 179 206 5,500 -1,080 Descending Kansas City Center
05:39PM 38.0056 -96.8928 226° Southwest 176 203 4,400 -960 Descending Kansas City Center
05:40PM 37.9764 -96.9372 230° Southwest 176 203 3,500 -660 Descending Kansas City Center
05:41PM 37.9414 -96.9856 227° Southwest 177 204 3,100 -240 Descending Kansas City Center
05:42PM 37.9064 -97.0364 229° Southwest 174 200 3,100 -60 Level Kansas City Center
05:43PM 37.8706 -97.0842 226° Southwest 175 201 3,000 -60 Descending Kansas City Center
05:44PM 37.8358 -97.1283 225° Southwest 175 201 3,000  Level Kansas City Center
05:45PM 37.8025 -97.1639 220° Southwest 168 193 3,000  Level Kansas City Center
05:46PM 37.7589 -97.1797 196° South 164 189 3,100 -240 Climbing Kansas City Center
05:47PM 37.7478 -97.2364 256° West 174 200 2,500 -300 Descending Kansas City Center
05:48PM 37.7900 -97.2558 340° North 176 203 2,500 -180 Level Kansas City Center
05:49PM 37.7892 -97.2172 92° East 136 157 2,200 -300 Descending Kansas City Center